sensor_id;sensor_type;location;lat;lon;timestamp;temperature;humidity
26262;DHT22;13988;52.446;13.280;2023-05-07T00:02:04;8.80;99.90
26262;DHT22;13988;52.446;13.280;2023-05-07T00:04:30;8.90;99.90
26262;DHT22;13988;52.446;13.280;2023-05-07T00:07:02;8.90;99.90
26262;DHT22;13988;52.446;13.280;2023-05-07T00:09:28;8.90;99.90
26262;DHT22;13988;52.446;13.280;2023-05-07T00:11:53;8.90;99.90
26262;DHT22;13988;52.446;13.280;2023-05-07T00:14:19;8.80;99.90
26262;DHT22;13988;52.446;13.280;2023-05-07T00:16:45;8.90;99.90
26262;DHT22;13988;52.446;13.280;2023-05-07T00:19:10;8.90;99.90
26262;DHT22;13988;52.446;13.280;2023-05-07T00:21:36;8.90;99.90
26262;DHT22;13988;52.446;13.280;2023-05-07T00:24:02;8.90;99.90
26262;DHT22;13988;52.446;13.280;2023-05-07T00:26:27;8.90;99.90
26262;DHT22;13988;52.446;13.280;2023-05-07T00:28:53;8.90;99.90
26262;DHT22;13988;52.446;13.280;2023-05-07T00:31:19;8.90;99.90
26262;DHT22;13988;52.446;13.280;2023-05-07T00:33:44;8.90;99.90
26262;DHT22;13988;52.446;13.280;2023-05-07T00:36:10;8.90;99.90
26262;DHT22;13988;52.446;13.280;2023-05-07T00:38:35;8.90;99.90
26262;DHT22;13988;52.446;13.280;2023-05-07T00:41:01;8.90;99.90
26262;DHT22;13988;52.446;13.280;2023-05-07T00:43:27;9.00;99.90
26262;DHT22;13988;52.446;13.280;2023-05-07T00:45:54;8.90;99.90
26262;DHT22;13988;52.446;13.280;2023-05-07T00:48:20;8.90;99.90
26262;DHT22;13988;52.446;13.280;2023-05-07T00:50:46;8.90;99.90
26262;DHT22;13988;52.446;13.280;2023-05-07T00:53:12;8.90;99.90
26262;DHT22;13988;52.446;13.280;2023-05-07T00:55:39;9.00;99.90
26262;DHT22;13988;52.446;13.280;2023-05-07T00:58:05;8.90;99.90
26262;DHT22;13988;52.446;13.280;2023-05-07T01:00:31;8.90;99.90
26262;DHT22;13988;52.446;13.280;2023-05-07T01:02:57;8.90;99.90
26262;DHT22;13988;52.446;13.280;2023-05-07T01:05:24;8.90;99.90
26262;DHT22;13988;52.446;13.280;2023-05-07T01:07:51;8.90;99.90
26262;DHT22;13988;52.446;13.280;2023-05-07T01:10:19;9.00;99.90
26262;DHT22;13988;52.446;13.280;2023-05-07T01:12:45;9.00;99.90
26262;DHT22;13988;52.446;13.280;2023-05-07T01:15:13;8.90;99.90
26262;DHT22;13988;52.446;13.280;2023-05-07T01:17:40;8.90;99.90
26262;DHT22;13988;52.446;13.280;2023-05-07T01:20:07;8.90;99.90
26262;DHT22;13988;52.446;13.280;2023-05-07T01:22:38;8.90;99.90
26262;DHT22;13988;52.446;13.280;2023-05-07T01:25:05;9.00;99.90
26262;DHT22;13988;52.446;13.280;2023-05-07T01:27:31;9.00;99.90
26262;DHT22;13988;52.446;13.280;2023-05-07T01:29:58;9.00;99.90
26262;DHT22;13988;52.446;13.280;2023-05-07T01:32:31;9.10;99.90
26262;DHT22;13988;52.446;13.280;2023-05-07T01:34:57;9.00;99.90
26262;DHT22;13988;52.446;13.280;2023-05-07T01:37:25;9.00;99.90
26262;DHT22;13988;52.446;13.280;2023-05-07T01:39:51;9.00;99.90
26262;DHT22;13988;52.446;13.280;2023-05-07T01:42:17;9.00;99.90
26262;DHT22;13988;52.446;13.280;2023-05-07T01:44:43;8.90;99.90
26262;DHT22;13988;52.446;13.280;2023-05-07T01:47:09;8.90;99.90
26262;DHT22;13988;52.446;13.280;2023-05-07T01:49:35;8.90;99.90
26262;DHT22;13988;52.446;13.280;2023-05-07T01:52:01;8.90;99.90
26262;DHT22;13988;52.446;13.280;2023-05-07T01:54:27;8.90;99.90
26262;DHT22;13988;52.446;13.280;2023-05-07T01:56:54;8.90;99.90
26262;DHT22;13988;52.446;13.280;2023-05-07T01:59:20;8.90;99.90
26262;DHT22;13988;52.446;13.280;2023-05-07T02:01:46;8.90;99.90
26262;DHT22;13988;52.446;13.280;2023-05-07T02:04:11;8.90;99.90
26262;DHT22;13988;52.446;13.280;2023-05-07T02:06:37;8.90;99.90
26262;DHT22;13988;52.446;13.280;2023-05-07T02:09:02;8.90;99.90
26262;DHT22;13988;52.446;13.280;2023-05-07T02:11:28;8.80;99.90
26262;DHT22;13988;52.446;13.280;2023-05-07T02:13:54;8.80;99.90
26262;DHT22;13988;52.446;13.280;2023-05-07T02:16:19;8.90;99.90
26262;DHT22;13988;52.446;13.280;2023-05-07T02:18:46;8.90;99.90
26262;DHT22;13988;52.446;13.280;2023-05-07T02:21:12;8.90;99.90
26262;DHT22;13988;52.446;13.280;2023-05-07T02:23:37;8.90;99.90
26262;DHT22;13988;52.446;13.280;2023-05-07T02:26:04;8.90;99.90
26262;DHT22;13988;52.446;13.280;2023-05-07T02:28:30;8.80;99.90
26262;DHT22;13988;52.446;13.280;2023-05-07T02:30:55;8.80;99.90
26262;DHT22;13988;52.446;13.280;2023-05-07T02:33:23;8.90;99.90
26262;DHT22;13988;52.446;13.280;2023-05-07T02:35:49;8.80;99.90
26262;DHT22;13988;52.446;13.280;2023-05-07T02:38:15;8.80;99.90
26262;DHT22;13988;52.446;13.280;2023-05-07T02:40:40;8.80;99.90
26262;DHT22;13988;52.446;13.280;2023-05-07T02:43:06;8.80;99.90
26262;DHT22;13988;52.446;13.280;2023-05-07T02:45:32;8.80;99.90
26262;DHT22;13988;52.446;13.280;2023-05-07T02:47:58;8.80;99.90
26262;DHT22;13988;52.446;13.280;2023-05-07T02:50:24;8.80;99.90
26262;DHT22;13988;52.446;13.280;2023-05-07T02:52:50;8.80;99.90
26262;DHT22;13988;52.446;13.280;2023-05-07T02:55:16;8.80;99.90
26262;DHT22;13988;52.446;13.280;2023-05-07T02:57:41;8.80;99.90
26262;DHT22;13988;52.446;13.280;2023-05-07T03:00:15;8.80;99.90
26262;DHT22;13988;52.446;13.280;2023-05-07T03:02:41;8.80;99.90
26262;DHT22;13988;52.446;13.280;2023-05-07T03:05:07;8.80;99.90
26262;DHT22;13988;52.446;13.280;2023-05-07T03:07:34;8.80;99.90
26262;DHT22;13988;52.446;13.280;2023-05-07T03:10:00;8.90;99.90
26262;DHT22;13988;52.446;13.280;2023-05-07T03:12:26;8.80;99.90
26262;DHT22;13988;52.446;13.280;2023-05-07T03:14:51;8.90;99.90
26262;DHT22;13988;52.446;13.280;2023-05-07T03:17:17;8.80;99.90
26262;DHT22;13988;52.446;13.280;2023-05-07T03:19:42;8.90;99.90
26262;DHT22;13988;52.446;13.280;2023-05-07T03:22:08;8.90;99.90
26262;DHT22;13988;52.446;13.280;2023-05-07T03:24:34;8.80;99.90
26262;DHT22;13988;52.446;13.280;2023-05-07T03:26:59;8.80;99.90
26262;DHT22;13988;52.446;13.280;2023-05-07T03:29:26;8.90;99.90
26262;DHT22;13988;52.446;13.280;2023-05-07T03:31:52;8.80;99.90
26262;DHT22;13988;52.446;13.280;2023-05-07T03:34:17;8.80;99.90
26262;DHT22;13988;52.446;13.280;2023-05-07T03:36:48;8.90;99.90
26262;DHT22;13988;52.446;13.280;2023-05-07T03:39:13;8.80;99.90
26262;DHT22;13988;52.446;13.280;2023-05-07T03:41:39;8.80;99.90
26262;DHT22;13988;52.446;13.280;2023-05-07T03:44:05;8.80;99.90
26262;DHT22;13988;52.446;13.280;2023-05-07T03:46:30;8.80;99.90
26262;DHT22;13988;52.446;13.280;2023-05-07T03:48:58;8.80;99.90
26262;DHT22;13988;52.446;13.280;2023-05-07T03:51:23;8.90;99.90
26262;DHT22;13988;52.446;13.280;2023-05-07T03:53:49;8.80;99.90
26262;DHT22;13988;52.446;13.280;2023-05-07T03:56:15;8.80;99.90
26262;DHT22;13988;52.446;13.280;2023-05-07T03:58:41;8.80;99.90
26262;DHT22;13988;52.446;13.280;2023-05-07T04:01:06;8.80;99.90
26262;DHT22;13988;52.446;13.280;2023-05-07T04:03:32;8.80;99.90
26262;DHT22;13988;52.446;13.280;2023-05-07T04:05:58;8.80;99.90
26262;DHT22;13988;52.446;13.280;2023-05-07T04:08:23;8.80;99.90
26262;DHT22;13988;52.446;13.280;2023-05-07T04:10:57;8.80;99.90
26262;DHT22;13988;52.446;13.280;2023-05-07T04:13:24;8.80;99.90
26262;DHT22;13988;52.446;13.280;2023-05-07T04:15:50;8.90;99.90
26262;DHT22;13988;52.446;13.280;2023-05-07T04:18:15;8.80;99.90
26262;DHT22;13988;52.446;13.280;2023-05-07T04:20:41;8.80;99.90
26262;DHT22;13988;52.446;13.280;2023-05-07T04:23:07;8.80;99.90
26262;DHT22;13988;52.446;13.280;2023-05-07T04:25:33;8.80;99.90
26262;DHT22;13988;52.446;13.280;2023-05-07T04:27:59;8.70;99.90
26262;DHT22;13988;52.446;13.280;2023-05-07T04:30:24;8.80;99.90
26262;DHT22;13988;52.446;13.280;2023-05-07T04:32:50;8.70;99.90
26262;DHT22;13988;52.446;13.280;2023-05-07T04:35:16;8.70;99.90
26262;DHT22;13988;52.446;13.280;2023-05-07T04:37:42;8.80;99.90
26262;DHT22;13988;52.446;13.280;2023-05-07T04:40:08;8.80;99.90
26262;DHT22;13988;52.446;13.280;2023-05-07T04:42:34;8.80;99.90
26262;DHT22;13988;52.446;13.280;2023-05-07T04:45:01;8.80;99.90
26262;DHT22;13988;52.446;13.280;2023-05-07T04:47:27;8.80;99.90
26262;DHT22;13988;52.446;13.280;2023-05-07T04:49:53;8.80;99.90
26262;DHT22;13988;52.446;13.280;2023-05-07T04:52:18;8.90;99.90
26262;DHT22;13988;52.446;13.280;2023-05-07T04:54:44;8.80;99.90
26262;DHT22;13988;52.446;13.280;2023-05-07T04:57:09;8.80;99.90
26262;DHT22;13988;52.446;13.280;2023-05-07T04:59:35;8.80;99.90
26262;DHT22;13988;52.446;13.280;2023-05-07T05:02:01;8.80;99.90
26262;DHT22;13988;52.446;13.280;2023-05-07T05:04:26;8.90;99.90
26262;DHT22;13988;52.446;13.280;2023-05-07T05:06:52;8.90;99.90
26262;DHT22;13988;52.446;13.280;2023-05-07T05:09:18;8.90;99.90
26262;DHT22;13988;52.446;13.280;2023-05-07T05:11:44;8.90;99.90
26262;DHT22;13988;52.446;13.280;2023-05-07T05:14:09;8.90;99.90
26262;DHT22;13988;52.446;13.280;2023-05-07T05:16:35;8.90;99.90
26262;DHT22;13988;52.446;13.280;2023-05-07T05:19:01;8.90;99.90
26262;DHT22;13988;52.446;13.280;2023-05-07T05:21:27;9.00;99.90
26262;DHT22;13988;52.446;13.280;2023-05-07T05:23:53;9.00;99.90
26262;DHT22;13988;52.446;13.280;2023-05-07T05:26:19;9.00;99.90
26262;DHT22;13988;52.446;13.280;2023-05-07T05:28:46;9.00;99.90
26262;DHT22;13988;52.446;13.280;2023-05-07T05:31:12;9.10;99.90
26262;DHT22;13988;52.446;13.280;2023-05-07T05:33:39;9.00;99.90
26262;DHT22;13988;52.446;13.280;2023-05-07T05:36:05;9.10;99.90
26262;DHT22;13988;52.446;13.280;2023-05-07T05:38:31;9.10;99.90
26262;DHT22;13988;52.446;13.280;2023-05-07T05:40:56;9.20;99.90
26262;DHT22;13988;52.446;13.280;2023-05-07T05:43:22;9.20;99.90
26262;DHT22;13988;52.446;13.280;2023-05-07T05:45:48;9.10;99.90
26262;DHT22;13988;52.446;13.280;2023-05-07T05:48:14;9.10;99.90
26262;DHT22;13988;52.446;13.280;2023-05-07T05:50:39;9.20;99.90
26262;DHT22;13988;52.446;13.280;2023-05-07T05:53:05;9.20;99.90
26262;DHT22;13988;52.446;13.280;2023-05-07T05:55:31;9.20;99.90
26262;DHT22;13988;52.446;13.280;2023-05-07T05:57:58;9.20;99.90
26262;DHT22;13988;52.446;13.280;2023-05-07T06:00:24;9.30;99.90
26262;DHT22;13988;52.446;13.280;2023-05-07T06:02:49;9.40;99.90
26262;DHT22;13988;52.446;13.280;2023-05-07T06:05:15;9.60;99.90
26262;DHT22;13988;52.446;13.280;2023-05-07T06:07:41;9.60;99.90
26262;DHT22;13988;52.446;13.280;2023-05-07T06:10:07;9.60;99.90
26262;DHT22;13988;52.446;13.280;2023-05-07T06:12:33;9.60;99.90
26262;DHT22;13988;52.446;13.280;2023-05-07T06:14:58;9.70;99.90
26262;DHT22;13988;52.446;13.280;2023-05-07T06:17:24;9.80;99.90
26262;DHT22;13988;52.446;13.280;2023-05-07T06:19:49;10.00;99.90
26262;DHT22;13988;52.446;13.280;2023-05-07T06:22:15;10.30;99.90
26262;DHT22;13988;52.446;13.280;2023-05-07T06:24:41;10.40;99.90
26262;DHT22;13988;52.446;13.280;2023-05-07T06:27:06;10.20;99.90
26262;DHT22;13988;52.446;13.280;2023-05-07T06:29:32;10.20;99.90
26262;DHT22;13988;52.446;13.280;2023-05-07T06:32:19;10.10;99.90
26262;DHT22;13988;52.446;13.280;2023-05-07T06:34:44;10.20;99.90
26262;DHT22;13988;52.446;13.280;2023-05-07T06:37:10;10.20;99.90
26262;DHT22;13988;52.446;13.280;2023-05-07T06:39:35;10.30;99.90
26262;DHT22;13988;52.446;13.280;2023-05-07T06:42:01;10.20;99.90
26262;DHT22;13988;52.446;13.280;2023-05-07T06:44:27;10.20;99.90
26262;DHT22;13988;52.446;13.280;2023-05-07T06:46:53;10.20;99.90
26262;DHT22;13988;52.446;13.280;2023-05-07T06:49:19;10.20;99.90
26262;DHT22;13988;52.446;13.280;2023-05-07T06:51:44;10.20;99.90
26262;DHT22;13988;52.446;13.280;2023-05-07T06:54:10;10.10;99.90
26262;DHT22;13988;52.446;13.280;2023-05-07T06:56:36;10.20;99.90
26262;DHT22;13988;52.446;13.280;2023-05-07T06:59:02;10.30;99.90
26262;DHT22;13988;52.446;13.280;2023-05-07T07:01:28;10.40;99.90
26262;DHT22;13988;52.446;13.280;2023-05-07T07:03:54;10.40;99.90
26262;DHT22;13988;52.446;13.280;2023-05-07T07:06:20;10.40;99.90
26262;DHT22;13988;52.446;13.280;2023-05-07T07:08:46;10.50;99.90
26262;DHT22;13988;52.446;13.280;2023-05-07T07:11:11;10.40;99.90
26262;DHT22;13988;52.446;13.280;2023-05-07T07:13:37;10.40;99.90
26262;DHT22;13988;52.446;13.280;2023-05-07T07:16:03;10.20;99.90
26262;DHT22;13988;52.446;13.280;2023-05-07T07:18:29;10.20;99.90
26262;DHT22;13988;52.446;13.280;2023-05-07T07:20:54;10.30;99.90
26262;DHT22;13988;52.446;13.280;2023-05-07T07:23:20;10.50;99.90
26262;DHT22;13988;52.446;13.280;2023-05-07T07:25:46;10.70;99.90
26262;DHT22;13988;52.446;13.280;2023-05-07T07:28:12;10.70;99.90
26262;DHT22;13988;52.446;13.280;2023-05-07T07:30:38;10.90;99.90
26262;DHT22;13988;52.446;13.280;2023-05-07T07:33:04;11.40;99.90
26262;DHT22;13988;52.446;13.280;2023-05-07T07:35:31;11.40;99.90
26262;DHT22;13988;52.446;13.280;2023-05-07T07:37:56;11.80;99.90
26262;DHT22;13988;52.446;13.280;2023-05-07T07:40:23;12.70;99.90
26262;DHT22;13988;52.446;13.280;2023-05-07T07:42:48;13.40;99.90
26262;DHT22;13988;52.446;13.280;2023-05-07T07:45:14;13.50;99.90
26262;DHT22;13988;52.446;13.280;2023-05-07T07:47:40;13.50;99.90
26262;DHT22;13988;52.446;13.280;2023-05-07T07:50:06;13.30;99.90
26262;DHT22;13988;52.446;13.280;2023-05-07T07:52:33;13.10;99.90
26262;DHT22;13988;52.446;13.280;2023-05-07T07:54:58;13.40;99.90
26262;DHT22;13988;52.446;13.280;2023-05-07T07:57:24;13.50;99.90
26262;DHT22;13988;52.446;13.280;2023-05-07T07:59:50;13.50;99.90
26262;DHT22;13988;52.446;13.280;2023-05-07T08:02:16;13.60;99.90
26262;DHT22;13988;52.446;13.280;2023-05-07T08:04:42;13.50;99.90
26262;DHT22;13988;52.446;13.280;2023-05-07T08:07:09;13.30;99.90
26262;DHT22;13988;52.446;13.280;2023-05-07T08:09:35;13.00;99.90
26262;DHT22;13988;52.446;13.280;2023-05-07T08:12:01;13.10;99.90
26262;DHT22;13988;52.446;13.280;2023-05-07T08:14:27;13.10;99.90
26262;DHT22;13988;52.446;13.280;2023-05-07T08:16:54;13.20;99.90
26262;DHT22;13988;52.446;13.280;2023-05-07T08:19:20;12.80;99.90
26262;DHT22;13988;52.446;13.280;2023-05-07T08:21:45;12.80;99.90
26262;DHT22;13988;52.446;13.280;2023-05-07T08:24:13;13.20;99.90
26262;DHT22;13988;52.446;13.280;2023-05-07T08:26:39;13.40;99.90
26262;DHT22;13988;52.446;13.280;2023-05-07T08:29:05;13.50;99.90
26262;DHT22;13988;52.446;13.280;2023-05-07T08:31:31;13.60;99.90
26262;DHT22;13988;52.446;13.280;2023-05-07T08:33:57;13.80;99.90
26262;DHT22;13988;52.446;13.280;2023-05-07T08:36:23;13.70;99.90
26262;DHT22;13988;52.446;13.280;2023-05-07T08:38:49;13.40;99.90
26262;DHT22;13988;52.446;13.280;2023-05-07T08:41:15;13.30;99.90
26262;DHT22;13988;52.446;13.280;2023-05-07T08:43:41;13.50;99.90
26262;DHT22;13988;52.446;13.280;2023-05-07T08:46:09;13.60;99.90
26262;DHT22;13988;52.446;13.280;2023-05-07T08:48:36;13.40;99.90
26262;DHT22;13988;52.446;13.280;2023-05-07T08:51:02;13.50;99.90
26262;DHT22;13988;52.446;13.280;2023-05-07T08:53:28;13.50;99.90
26262;DHT22;13988;52.446;13.280;2023-05-07T08:55:54;13.40;99.90
26262;DHT22;13988;52.446;13.280;2023-05-07T08:58:20;13.60;99.90
26262;DHT22;13988;52.446;13.280;2023-05-07T09:00:46;13.60;99.90
26262;DHT22;13988;52.446;13.280;2023-05-07T09:03:12;13.40;99.90
26262;DHT22;13988;52.446;13.280;2023-05-07T09:05:39;13.30;99.90
26262;DHT22;13988;52.446;13.280;2023-05-07T09:08:07;13.30;99.90
26262;DHT22;13988;52.446;13.280;2023-05-07T09:10:33;13.40;99.90
26262;DHT22;13988;52.446;13.280;2023-05-07T09:12:59;13.50;99.90
26262;DHT22;13988;52.446;13.280;2023-05-07T09:15:26;13.70;99.90
26262;DHT22;13988;52.446;13.280;2023-05-07T09:17:53;13.80;99.90
26262;DHT22;13988;52.446;13.280;2023-05-07T09:20:19;13.80;99.90
26262;DHT22;13988;52.446;13.280;2023-05-07T09:22:44;13.70;99.90
26262;DHT22;13988;52.446;13.280;2023-05-07T09:25:10;13.60;99.90
26262;DHT22;13988;52.446;13.280;2023-05-07T09:27:36;13.80;99.90
26262;DHT22;13988;52.446;13.280;2023-05-07T09:30:06;13.80;99.90
26262;DHT22;13988;52.446;13.280;2023-05-07T09:32:35;13.80;99.90
26262;DHT22;13988;52.446;13.280;2023-05-07T09:35:03;13.90;99.90
26262;DHT22;13988;52.446;13.280;2023-05-07T09:37:31;13.80;99.90
26262;DHT22;13988;52.446;13.280;2023-05-07T09:39:57;13.80;99.90
26262;DHT22;13988;52.446;13.280;2023-05-07T09:42:23;14.00;99.90
26262;DHT22;13988;52.446;13.280;2023-05-07T09:44:50;14.20;99.90
26262;DHT22;13988;52.446;13.280;2023-05-07T09:47:19;14.20;99.90
26262;DHT22;13988;52.446;13.280;2023-05-07T09:49:47;14.00;99.90
26262;DHT22;13988;52.446;13.280;2023-05-07T09:52:14;13.80;99.90
26262;DHT22;13988;52.446;13.280;2023-05-07T09:54:40;14.10;99.90
26262;DHT22;13988;52.446;13.280;2023-05-07T09:57:10;14.10;99.90
26262;DHT22;13988;52.446;13.280;2023-05-07T09:59:37;14.20;99.90
26262;DHT22;13988;52.446;13.280;2023-05-07T10:02:04;13.90;99.90
26262;DHT22;13988;52.446;13.280;2023-05-07T10:04:31;14.00;99.90
26262;DHT22;13988;52.446;13.280;2023-05-07T10:06:57;14.10;99.90
26262;DHT22;13988;52.446;13.280;2023-05-07T10:09:25;14.30;99.90
26262;DHT22;13988;52.446;13.280;2023-05-07T10:11:51;13.90;99.90
26262;DHT22;13988;52.446;13.280;2023-05-07T10:14:19;13.90;99.90
26262;DHT22;13988;52.446;13.280;2023-05-07T10:16:47;14.00;99.90
26262;DHT22;13988;52.446;13.280;2023-05-07T10:19:14;14.00;99.90
26262;DHT22;13988;52.446;13.280;2023-05-07T10:21:48;14.00;99.90
26262;DHT22;13988;52.446;13.280;2023-05-07T10:24:21;14.00;99.90
26262;DHT22;13988;52.446;13.280;2023-05-07T10:26:49;14.10;99.90
26262;DHT22;13988;52.446;13.280;2023-05-07T10:29:49;14.30;99.90
26262;DHT22;13988;52.446;13.280;2023-05-07T10:32:39;14.30;99.90
26262;DHT22;13988;52.446;13.280;2023-05-07T10:35:10;14.00;99.90
26262;DHT22;13988;52.446;13.280;2023-05-07T10:37:40;13.90;99.90
26262;DHT22;13988;52.446;13.280;2023-05-07T10:40:06;14.10;99.90
26262;DHT22;13988;52.446;13.280;2023-05-07T10:42:32;14.30;99.90
26262;DHT22;13988;52.446;13.280;2023-05-07T10:44:58;14.50;99.90
26262;DHT22;13988;52.446;13.280;2023-05-07T10:48:12;14.50;99.90
26262;DHT22;13988;52.446;13.280;2023-05-07T10:50:42;14.40;99.90
26262;DHT22;13988;52.446;13.280;2023-05-07T10:55:46;14.50;99.90
26262;DHT22;13988;52.446;13.280;2023-05-07T11:00:48;14.40;99.90
26262;DHT22;13988;52.446;13.280;2023-05-07T11:03:14;14.70;99.90
26262;DHT22;13988;52.446;13.280;2023-05-07T11:05:41;14.70;99.90
26262;DHT22;13988;52.446;13.280;2023-05-07T11:08:08;14.90;99.90
26262;DHT22;13988;52.446;13.280;2023-05-07T11:10:56;14.90;99.90
26262;DHT22;13988;52.446;13.280;2023-05-07T11:13:47;15.30;99.90
26262;DHT22;13988;52.446;13.280;2023-05-07T11:16:23;15.50;99.90
26262;DHT22;13988;52.446;13.280;2023-05-07T11:18:51;16.00;99.90
26262;DHT22;13988;52.446;13.280;2023-05-07T11:21:36;16.90;99.90
26262;DHT22;13988;52.446;13.280;2023-05-07T11:24:04;17.60;99.90
26262;DHT22;13988;52.446;13.280;2023-05-07T11:26:41;17.30;99.90
26262;DHT22;13988;52.446;13.280;2023-05-07T11:29:20;17.40;99.90
26262;DHT22;13988;52.446;13.280;2023-05-07T11:31:53;17.40;99.90
26262;DHT22;13988;52.446;13.280;2023-05-07T11:34:23;17.00;99.90
26262;DHT22;13988;52.446;13.280;2023-05-07T11:36:50;16.30;99.90
26262;DHT22;13988;52.446;13.280;2023-05-07T11:39:45;16.20;99.90
26262;DHT22;13988;52.446;13.280;2023-05-07T11:42:31;16.40;99.90
26262;DHT22;13988;52.446;13.280;2023-05-07T11:44:57;16.80;99.90
26262;DHT22;13988;52.446;13.280;2023-05-07T11:47:22;17.70;99.90
26262;DHT22;13988;52.446;13.280;2023-05-07T11:49:50;18.20;99.90
26262;DHT22;13988;52.446;13.280;2023-05-07T11:52:17;17.90;99.90
26262;DHT22;13988;52.446;13.280;2023-05-07T11:54:49;18.40;99.90
26262;DHT22;13988;52.446;13.280;2023-05-07T11:57:15;18.20;99.90
26262;DHT22;13988;52.446;13.280;2023-05-07T11:59:41;18.40;99.90
26262;DHT22;13988;52.446;13.280;2023-05-07T12:02:07;18.00;99.90
26262;DHT22;13988;52.446;13.280;2023-05-07T12:04:33;17.80;99.90
26262;DHT22;13988;52.446;13.280;2023-05-07T12:06:59;18.00;99.90
26262;DHT22;13988;52.446;13.280;2023-05-07T12:09:25;18.20;99.90
26262;DHT22;13988;52.446;13.280;2023-05-07T12:11:52;17.70;99.90
26262;DHT22;13988;52.446;13.280;2023-05-07T12:14:17;17.60;99.90
26262;DHT22;13988;52.446;13.280;2023-05-07T12:16:44;17.60;99.90
26262;DHT22;13988;52.446;13.280;2023-05-07T12:19:10;17.00;99.90
26262;DHT22;13988;52.446;13.280;2023-05-07T12:21:38;16.70;99.90
26262;DHT22;13988;52.446;13.280;2023-05-07T12:24:05;16.90;99.90
26262;DHT22;13988;52.446;13.280;2023-05-07T12:26:31;17.20;99.90
26262;DHT22;13988;52.446;13.280;2023-05-07T12:28:59;17.80;99.90
26262;DHT22;13988;52.446;13.280;2023-05-07T12:31:28;18.00;99.90
26262;DHT22;13988;52.446;13.280;2023-05-07T12:33:53;18.50;99.90
26262;DHT22;13988;52.446;13.280;2023-05-07T12:36:19;18.40;99.90
26262;DHT22;13988;52.446;13.280;2023-05-07T12:38:49;18.20;99.90
26262;DHT22;13988;52.446;13.280;2023-05-07T12:41:15;17.60;99.90
26262;DHT22;13988;52.446;13.280;2023-05-07T12:43:44;17.30;99.90
26262;DHT22;13988;52.446;13.280;2023-05-07T12:46:11;16.80;99.90
26262;DHT22;13988;52.446;13.280;2023-05-07T12:48:43;16.60;99.90
26262;DHT22;13988;52.446;13.280;2023-05-07T12:51:11;16.90;99.90
26262;DHT22;13988;52.446;13.280;2023-05-07T12:53:41;17.50;99.90
26262;DHT22;13988;52.446;13.280;2023-05-07T12:56:08;17.90;99.90
26262;DHT22;13988;52.446;13.280;2023-05-07T12:58:34;17.80;99.90
26262;DHT22;13988;52.446;13.280;2023-05-07T13:01:05;17.90;99.90
26262;DHT22;13988;52.446;13.280;2023-05-07T13:03:33;18.60;99.90
26262;DHT22;13988;52.446;13.280;2023-05-07T13:06:04;19.00;99.90
26262;DHT22;13988;52.446;13.280;2023-05-07T13:08:35;19.00;98.90
26262;DHT22;13988;52.446;13.280;2023-05-07T13:11:03;18.80;99.90
26262;DHT22;13988;52.446;13.280;2023-05-07T13:13:34;18.80;99.90
26262;DHT22;13988;52.446;13.280;2023-05-07T13:16:01;18.60;99.90
26262;DHT22;13988;52.446;13.280;2023-05-07T13:18:29;19.00;99.90
26262;DHT22;13988;52.446;13.280;2023-05-07T13:20:54;18.60;98.20
26262;DHT22;13988;52.446;13.280;2023-05-07T13:23:20;19.10;99.90
26262;DHT22;13988;52.446;13.280;2023-05-07T13:25:46;19.30;98.20
26262;DHT22;13988;52.446;13.280;2023-05-07T13:28:12;19.60;97.50
26262;DHT22;13988;52.446;13.280;2023-05-07T13:30:37;19.60;96.90
26262;DHT22;13988;52.446;13.280;2023-05-07T13:33:03;19.50;95.00
26262;DHT22;13988;52.446;13.280;2023-05-07T13:35:29;19.40;94.70
26262;DHT22;13988;52.446;13.280;2023-05-07T13:37:55;18.90;95.00
26262;DHT22;13988;52.446;13.280;2023-05-07T13:40:24;19.90;97.40
26262;DHT22;13988;52.446;13.280;2023-05-07T13:42:49;19.80;92.50
26262;DHT22;13988;52.446;13.280;2023-05-07T13:45:17;19.30;91.70
26262;DHT22;13988;52.446;13.280;2023-05-07T13:47:43;19.50;95.00
26262;DHT22;13988;52.446;13.280;2023-05-07T13:50:09;19.20;94.90
26262;DHT22;13988;52.446;13.280;2023-05-07T13:52:40;19.40;94.10
26262;DHT22;13988;52.446;13.280;2023-05-07T13:55:07;19.40;92.80
26262;DHT22;13988;52.446;13.280;2023-05-07T13:57:33;19.30;94.10
26262;DHT22;13988;52.446;13.280;2023-05-07T13:59:58;19.30;94.50
26262;DHT22;13988;52.446;13.280;2023-05-07T14:02:24;18.60;93.20
26262;DHT22;13988;52.446;13.280;2023-05-07T14:04:50;18.60;91.60
26262;DHT22;13988;52.446;13.280;2023-05-07T14:07:15;18.90;93.30
26262;DHT22;13988;52.446;13.280;2023-05-07T14:09:41;18.80;94.60
26262;DHT22;13988;52.446;13.280;2023-05-07T14:12:07;18.70;94.00
26262;DHT22;13988;52.446;13.280;2023-05-07T14:14:32;19.40;94.90
26262;DHT22;13988;52.446;13.280;2023-05-07T14:16:58;19.70;92.20
26262;DHT22;13988;52.446;13.280;2023-05-07T14:19:24;19.20;93.00
26262;DHT22;13988;52.446;13.280;2023-05-07T14:21:49;19.60;92.90
26262;DHT22;13988;52.446;13.280;2023-05-07T14:24:15;19.10;91.70
26262;DHT22;13988;52.446;13.280;2023-05-07T14:26:41;19.60;93.80
26262;DHT22;13988;52.446;13.280;2023-05-07T14:29:06;19.40;91.70
26262;DHT22;13988;52.446;13.280;2023-05-07T14:31:32;19.50;91.70
26262;DHT22;13988;52.446;13.280;2023-05-07T14:33:58;19.50;93.60
26262;DHT22;13988;52.446;13.280;2023-05-07T14:36:24;19.20;91.50
26262;DHT22;13988;52.446;13.280;2023-05-07T14:38:54;19.30;92.10
26262;DHT22;13988;52.446;13.280;2023-05-07T14:41:21;19.30;91.70
26262;DHT22;13988;52.446;13.280;2023-05-07T14:43:47;19.40;92.50
26262;DHT22;13988;52.446;13.280;2023-05-07T14:46:18;18.60;90.40
26262;DHT22;13988;52.446;13.280;2023-05-07T14:48:45;18.30;93.90
26262;DHT22;13988;52.446;13.280;2023-05-07T14:51:11;18.70;92.10
26262;DHT22;13988;52.446;13.280;2023-05-07T14:53:37;19.20;92.90
26262;DHT22;13988;52.446;13.280;2023-05-07T14:56:03;19.10;90.40
26262;DHT22;13988;52.446;13.280;2023-05-07T14:58:29;18.70;93.00
26262;DHT22;13988;52.446;13.280;2023-05-07T15:00:55;18.80;91.40
26262;DHT22;13988;52.446;13.280;2023-05-07T15:03:21;19.00;94.00
26262;DHT22;13988;52.446;13.280;2023-05-07T15:05:47;18.70;92.00
26262;DHT22;13988;52.446;13.280;2023-05-07T15:08:12;18.50;93.30
26262;DHT22;13988;52.446;13.280;2023-05-07T15:10:38;18.30;95.40
26262;DHT22;13988;52.446;13.280;2023-05-07T15:13:10;18.10;93.70
26262;DHT22;13988;52.446;13.280;2023-05-07T15:15:36;17.50;94.90
26262;DHT22;13988;52.446;13.280;2023-05-07T15:18:02;17.10;93.40
26262;DHT22;13988;52.446;13.280;2023-05-07T15:20:28;16.70;94.90
26262;DHT22;13988;52.446;13.280;2023-05-07T15:22:54;16.70;96.50
26262;DHT22;13988;52.446;13.280;2023-05-07T15:25:19;16.70;99.20
26262;DHT22;13988;52.446;13.280;2023-05-07T15:27:46;16.40;96.50